sensor_id;sensor_type;location;lat;lon;timestamp;P1;durP1;ratioP1;P2;durP2;ratioP2
12114;SDS011;6121;49.810;6.418;2023-01-19T00:00:36;169.88;;;29.58;;
12114;SDS011;6121;49.810;6.418;2023-01-19T00:03:02;164.52;;;28.52;;
12114;SDS011;6121;49.810;6.418;2023-01-19T00:05:29;145.57;;;25.27;;
12114;SDS011;6121;49.810;6.418;2023-01-19T00:07:55;114.60;;;21.25;;
12114;SDS011;6121;49.810;6.418;2023-01-19T00:10:20;131.02;;;23.30;;
12114;SDS011;6121;49.810;6.418;2023-01-19T00:12:46;138.68;;;24.17;;
12114;SDS011;6121;49.810;6.418;2023-01-19T00:15:12;176.73;;;30.20;;
12114;SDS011;6121;49.810;6.418;2023-01-19T00:17:38;148.52;;;26.85;;
12114;SDS011;6121;49.810;6.418;2023-01-19T00:20:05;121.32;;;22.58;;
12114;SDS011;6121;49.810;6.418;2023-01-19T00:22:33;180.83;;;30.50;;
12114;SDS011;6121;49.810;6.418;2023-01-19T00:24:59;132.50;;;24.23;;
12114;SDS011;6121;49.810;6.418;2023-01-19T00:27:25;135.93;;;24.47;;
12114;SDS011;6121;49.810;6.418;2023-01-19T00:29:50;114.47;;;21.70;;
12114;SDS011;6121;49.810;6.418;2023-01-19T00:32:16;235.23;;;37.67;;
12114;SDS011;6121;49.810;6.418;2023-01-19T00:34:43;114.05;;;21.67;;
12114;SDS011;6121;49.810;6.418;2023-01-19T00:37:14;111.03;;;21.70;;
12114;SDS011;6121;49.810;6.418;2023-01-19T00:39:41;127.32;;;23.92;;
12114;SDS011;6121;49.810;6.418;2023-01-19T00:42:07;209.35;;;33.30;;
12114;SDS011;6121;49.810;6.418;2023-01-19T00:44:54;119.05;;;22.48;;
12114;SDS011;6121;49.810;6.418;2023-01-19T00:47:21;147.27;;;27.25;;
12114;SDS011;6121;49.810;6.418;2023-01-19T00:49:47;95.13;;;19.77;;
12114;SDS011;6121;49.810;6.418;2023-01-19T00:52:12;210.65;;;36.47;;
12114;SDS011;6121;49.810;6.418;2023-01-19T00:54:39;184.07;;;33.67;;
12114;SDS011;6121;49.810;6.418;2023-01-19T00:57:05;109.15;;;26.15;;
12114;SDS011;6121;49.810;6.418;2023-01-19T00:59:31;115.13;;;25.67;;
12114;SDS011;6121;49.810;6.418;2023-01-19T01:01:57;179.90;;;33.28;;
12114;SDS011;6121;49.810;6.418;2023-01-19T01:04:22;142.13;;;28.52;;
12114;SDS011;6121;49.810;6.418;2023-01-19T01:06:48;114.10;;;23.45;;
12114;SDS011;6121;49.810;6.418;2023-01-19T01:09:14;124.95;;;25.45;;
12114;SDS011;6121;49.810;6.418;2023-01-19T01:11:40;160.40;;;32.20;;
12114;SDS011;6121;49.810;6.418;2023-01-19T01:14:08;127.10;;;24.80;;
12114;SDS011;6121;49.810;6.418;2023-01-19T01:16:36;117.57;;;25.23;;
12114;SDS011;6121;49.810;6.418;2023-01-19T01:19:01;107.93;;;22.90;;
12114;SDS011;6121;49.810;6.418;2023-01-19T01:21:27;102.25;;;21.60;;
12114;SDS011;6121;49.810;6.418;2023-01-19T01:23:53;111.35;;;23.17;;
12114;SDS011;6121;49.810;6.418;2023-01-19T01:26:19;120.22;;;25.00;;
12114;SDS011;6121;49.810;6.418;2023-01-19T01:28:45;91.50;;;20.77;;
12114;SDS011;6121;49.810;6.418;2023-01-19T01:31:11;108.18;;;22.77;;
12114;SDS011;6121;49.810;6.418;2023-01-19T01:33:37;118.43;;;23.93;;
12114;SDS011;6121;49.810;6.418;2023-01-19T01:36:03;121.20;;;23.65;;
12114;SDS011;6121;49.810;6.418;2023-01-19T01:38:29;138.85;;;25.42;;
12114;SDS011;6121;49.810;6.418;2023-01-19T01:40:55;117.07;;;22.60;;
12114;SDS011;6121;49.810;6.418;2023-01-19T01:43:20;145.02;;;27.10;;
12114;SDS011;6121;49.810;6.418;2023-01-19T01:45:47;108.07;;;22.70;;
12114;SDS011;6121;49.810;6.418;2023-01-19T01:48:17;108.35;;;24.42;;
12114;SDS011;6121;49.810;6.418;2023-01-19T01:50:54;116.28;;;22.17;;
12114;SDS011;6121;49.810;6.418;2023-01-19T01:53:44;115.75;;;21.88;;
12114;SDS011;6121;49.810;6.418;2023-01-19T01:56:14;142.77;;;25.85;;
12114;SDS011;6121;49.810;6.418;2023-01-19T01:58:45;123.50;;;24.15;;
12114;SDS011;6121;49.810;6.418;2023-01-19T02:01:11;122.70;;;23.13;;
12114;SDS011;6121;49.810;6.418;2023-01-19T02:03:55;106.30;;;22.20;;
12114;SDS011;6121;49.810;6.418;2023-01-19T02:06:22;110.78;;;23.40;;
12114;SDS011;6121;49.810;6.418;2023-01-19T02:11:42;154.55;;;28.38;;
12114;SDS011;6121;49.810;6.418;2023-01-19T02:14:26;118.28;;;23.25;;
12114;SDS011;6121;49.810;6.418;2023-01-19T02:16:52;106.15;;;22.50;;
12114;SDS011;6121;49.810;6.418;2023-01-19T02:19:20;130.27;;;25.88;;
12114;SDS011;6121;49.810;6.418;2023-01-19T02:22:10;162.75;;;29.73;;
12114;SDS011;6121;49.810;6.418;2023-01-19T02:24:43;120.10;;;25.58;;
12114;SDS011;6121;49.810;6.418;2023-01-19T02:27:09;105.22;;;22.77;;
12114;SDS011;6121;49.810;6.418;2023-01-19T02:29:36;122.50;;;25.63;;
12114;SDS011;6121;49.810;6.418;2023-01-19T02:32:03;184.10;;;34.33;;
12114;SDS011;6121;49.810;6.418;2023-01-19T02:34:30;127.78;;;30.15;;
12114;SDS011;6121;49.810;6.418;2023-01-19T02:36:57;121.77;;;28.30;;
12114;SDS011;6121;49.810;6.418;2023-01-19T02:39:49;138.20;;;31.35;;
12114;SDS011;6121;49.810;6.418;2023-01-19T02:42:26;159.93;;;35.25;;
12114;SDS011;6121;49.810;6.418;2023-01-19T02:45:11;106.07;;;31.73;;
12114;SDS011;6121;49.810;6.418;2023-01-19T02:47:39;152.83;;;37.40;;
12114;SDS011;6121;49.810;6.418;2023-01-19T02:56:40;167.73;;;45.20;;
12114;SDS011;6121;49.810;6.418;2023-01-19T03:07:18;141.35;;;44.40;;
12114;SDS011;6121;49.810;6.418;2023-01-19T03:10:01;151.25;;;49.05;;
12114;SDS011;6121;49.810;6.418;2023-01-19T03:15:27;139.05;;;37.85;;
12114;SDS011;6121;49.810;6.418;2023-01-19T03:18:15;115.57;;;32.63;;
12114;SDS011;6121;49.810;6.418;2023-01-19T03:20:44;115.75;;;34.25;;
12114;SDS011;6121;49.810;6.418;2023-01-19T03:23:11;131.55;;;36.80;;
12114;SDS011;6121;49.810;6.418;2023-01-19T03:25:41;149.30;;;35.88;;
12114;SDS011;6121;49.810;6.418;2023-01-19T03:28:09;100.50;;;30.43;;
12114;SDS011;6121;49.810;6.418;2023-01-19T03:30:41;118.63;;;32.33;;
12114;SDS011;6121;49.810;6.418;2023-01-19T03:33:14;161.68;;;37.30;;
12114;SDS011;6121;49.810;6.418;2023-01-19T03:35:47;125.82;;;31.75;;
12114;SDS011;6121;49.810;6.418;2023-01-19T03:38:17;122.35;;;35.70;;
12114;SDS011;6121;49.810;6.418;2023-01-19T03:40:49;122.07;;;35.67;;
12114;SDS011;6121;49.810;6.418;2023-01-19T03:43:21;164.82;;;39.13;;
12114;SDS011;6121;49.810;6.418;2023-01-19T03:45:48;104.00;;;33.95;;
12114;SDS011;6121;49.810;6.418;2023-01-19T03:48:15;105.55;;;36.42;;
12114;SDS011;6121;49.810;6.418;2023-01-19T03:50:42;143.45;;;42.90;;
12114;SDS011;6121;49.810;6.418;2023-01-19T03:53:09;127.03;;;43.22;;
12114;SDS011;6121;49.810;6.418;2023-01-19T03:55:38;132.07;;;49.97;;
12114;SDS011;6121;49.810;6.418;2023-01-19T03:58:05;100.57;;;54.28;;
12114;SDS011;6121;49.810;6.418;2023-01-19T04:00:32;154.63;;;78.60;;
12114;SDS011;6121;49.810;6.418;2023-01-19T04:02:58;142.10;;;96.40;;
12114;SDS011;6121;49.810;6.418;2023-01-19T04:05:25;161.70;;;123.75;;
12114;SDS011;6121;49.810;6.418;2023-01-19T04:07:51;121.50;;;56.70;;
12114;SDS011;6121;49.810;6.418;2023-01-19T04:10:17;145.25;;;57.88;;
12114;SDS011;6121;49.810;6.418;2023-01-19T04:12:44;152.47;;;54.10;;
12114;SDS011;6121;49.810;6.418;2023-01-19T04:15:10;119.10;;;51.35;;
12114;SDS011;6121;49.810;6.418;2023-01-19T04:17:36;133.63;;;47.58;;
12114;SDS011;6121;49.810;6.418;2023-01-19T04:20:03;139.60;;;51.78;;
12114;SDS011;6121;49.810;6.418;2023-01-19T04:22:30;176.43;;;60.05;;
12114;SDS011;6121;49.810;6.418;2023-01-19T04:24:56;110.30;;;67.23;;
12114;SDS011;6121;49.810;6.418;2023-01-19T04:27:22;156.13;;;88.93;;
12114;SDS011;6121;49.810;6.418;2023-01-19T04:29:48;149.68;;;96.95;;
12114;SDS011;6121;49.810;6.418;2023-01-19T04:32:15;220.07;;;114.32;;
12114;SDS011;6121;49.810;6.418;2023-01-19T04:34:40;163.23;;;101.00;;
12114;SDS011;6121;49.810;6.418;2023-01-19T04:37:06;154.18;;;102.35;;
12114;SDS011;6121;49.810;6.418;2023-01-19T04:39:32;176.98;;;100.35;;
12114;SDS011;6121;49.810;6.418;2023-01-19T04:41:59;189.10;;;88.40;;
12114;SDS011;6121;49.810;6.418;2023-01-19T04:44:25;147.25;;;79.85;;
12114;SDS011;6121;49.810;6.418;2023-01-19T04:46:52;138.20;;;93.63;;
12114;SDS011;6121;49.810;6.418;2023-01-19T04:49:18;167.18;;;114.35;;
12114;SDS011;6121;49.810;6.418;2023-01-19T04:51:43;165.90;;;90.03;;
12114;SDS011;6121;49.810;6.418;2023-01-19T04:54:09;141.95;;;90.05;;
12114;SDS011;6121;49.810;6.418;2023-01-19T04:56:35;135.77;;;74.27;;
12114;SDS011;6121;49.810;6.418;2023-01-19T04:59:01;119.60;;;69.38;;
12114;SDS011;6121;49.810;6.418;2023-01-19T05:01:27;174.07;;;65.00;;
12114;SDS011;6121;49.810;6.418;2023-01-19T05:03:53;128.47;;;59.23;;
12114;SDS011;6121;49.810;6.418;2023-01-19T05:06:19;119.93;;;54.40;;
12114;SDS011;6121;49.810;6.418;2023-01-19T05:08:44;146.60;;;71.57;;
12114;SDS011;6121;49.810;6.418;2023-01-19T05:11:11;133.15;;;68.05;;
12114;SDS011;6121;49.810;6.418;2023-01-19T05:13:36;156.77;;;73.97;;
12114;SDS011;6121;49.810;6.418;2023-01-19T05:16:07;165.73;;;78.30;;
12114;SDS011;6121;49.810;6.418;2023-01-19T05:18:33;190.25;;;98.97;;
12114;SDS011;6121;49.810;6.418;2023-01-19T05:21:04;195.60;;;129.98;;
12114;SDS011;6121;49.810;6.418;2023-01-19T05:23:31;226.45;;;135.85;;
12114;SDS011;6121;49.810;6.418;2023-01-19T05:25:58;183.35;;;161.98;;
12114;SDS011;6121;49.810;6.418;2023-01-19T05:28:29;270.30;;;203.37;;
12114;SDS011;6121;49.810;6.418;2023-01-19T05:30:58;143.55;;;123.25;;
12114;SDS011;6121;49.810;6.418;2023-01-19T05:33:24;180.95;;;96.07;;
12114;SDS011;6121;49.810;6.418;2023-01-19T05:35:52;146.05;;;88.15;;
12114;SDS011;6121;49.810;6.418;2023-01-19T05:38:19;156.00;;;110.38;;
12114;SDS011;6121;49.810;6.418;2023-01-19T05:40:46;159.65;;;92.70;;
12114;SDS011;6121;49.810;6.418;2023-01-19T05:43:13;118.30;;;82.50;;
12114;SDS011;6121;49.810;6.418;2023-01-19T05:45:40;187.40;;;61.60;;
12114;SDS011;6121;49.810;6.418;2023-01-19T05:48:06;116.93;;;57.45;;
12114;SDS011;6121;49.810;6.418;2023-01-19T05:50:33;108.18;;;38.67;;
12114;SDS011;6121;49.810;6.418;2023-01-19T05:52:59;115.70;;;48.30;;
12114;SDS011;6121;49.810;6.418;2023-01-19T05:55:27;153.30;;;48.13;;
12114;SDS011;6121;49.810;6.418;2023-01-19T05:57:53;115.22;;;42.53;;
12114;SDS011;6121;49.810;6.418;2023-01-19T06:00:20;136.40;;;51.47;;
12114;SDS011;6121;49.810;6.418;2023-01-19T06:02:45;149.60;;;43.67;;
12114;SDS011;6121;49.810;6.418;2023-01-19T06:05:14;110.63;;;32.92;;
12114;SDS011;6121;49.810;6.418;2023-01-19T06:07:40;111.88;;;33.47;;
12114;SDS011;6121;49.810;6.418;2023-01-19T06:10:06;115.18;;;34.70;;
12114;SDS011;6121;49.810;6.418;2023-01-19T06:12:33;153.90;;;42.47;;
12114;SDS011;6121;49.810;6.418;2023-01-19T06:14:59;110.95;;;36.55;;
12114;SDS011;6121;49.810;6.418;2023-01-19T06:17:25;144.57;;;46.63;;
12114;SDS011;6121;49.810;6.418;2023-01-19T06:19:51;123.07;;;45.55;;
12114;SDS011;6121;49.810;6.418;2023-01-19T06:22:17;168.20;;;35.20;;
12114;SDS011;6121;49.810;6.418;2023-01-19T06:24:42;133.07;;;33.65;;
12114;SDS011;6121;49.810;6.418;2023-01-19T06:27:08;105.17;;;31.63;;
12114;SDS011;6121;49.810;6.418;2023-01-19T06:29:35;139.70;;;37.08;;
12114;SDS011;6121;49.810;6.418;2023-01-19T06:32:01;205.43;;;53.53;;
12114;SDS011;6121;49.810;6.418;2023-01-19T06:34:27;135.00;;;41.28;;
12114;SDS011;6121;49.810;6.418;2023-01-19T06:36:56;110.03;;;46.60;;
12114;SDS011;6121;49.810;6.418;2023-01-19T06:39:22;126.72;;;47.60;;
12114;SDS011;6121;49.810;6.418;2023-01-19T06:41:48;192.07;;;61.40;;
12114;SDS011;6121;49.810;6.418;2023-01-19T06:44:14;128.60;;;54.42;;
12114;SDS011;6121;49.810;6.418;2023-01-19T06:46:40;145.60;;;61.10;;
12114;SDS011;6121;49.810;6.418;2023-01-19T06:49:06;134.60;;;52.07;;
12114;SDS011;6121;49.810;6.418;2023-01-19T06:51:32;126.80;;;49.85;;
12114;SDS011;6121;49.810;6.418;2023-01-19T06:53:58;164.60;;;55.72;;
12114;SDS011;6121;49.810;6.418;2023-01-19T06:56:24;138.20;;;49.75;;
12114;SDS011;6121;49.810;6.418;2023-01-19T06:58:50;156.82;;;50.25;;
12114;SDS011;6121;49.810;6.418;2023-01-19T07:01:17;127.28;;;44.63;;
12114;SDS011;6121;49.810;6.418;2023-01-19T07:03:43;194.88;;;55.65;;
12114;SDS011;6121;49.810;6.418;2023-01-19T07:06:09;143.90;;;47.88;;
12114;SDS011;6121;49.810;6.418;2023-01-19T07:08:37;144.57;;;57.80;;
12114;SDS011;6121;49.810;6.418;2023-01-19T07:11:07;185.18;;;65.05;;
12114;SDS011;6121;49.810;6.418;2023-01-19T07:13:36;244.13;;;80.18;;
12114;SDS011;6121;49.810;6.418;2023-01-19T07:16:07;136.88;;;59.15;;
12114;SDS011;6121;49.810;6.418;2023-01-19T07:18:35;151.82;;;64.97;;
12114;SDS011;6121;49.810;6.418;2023-01-19T07:21:03;157.32;;;70.85;;
12114;SDS011;6121;49.810;6.418;2023-01-19T07:23:30;172.95;;;54.88;;
12114;SDS011;6121;49.810;6.418;2023-01-19T07:25:56;160.88;;;65.22;;
12114;SDS011;6121;49.810;6.418;2023-01-19T07:28:23;154.18;;;67.55;;
12114;SDS011;6121;49.810;6.418;2023-01-19T07:30:50;154.33;;;67.10;;
12114;SDS011;6121;49.810;6.418;2023-01-19T07:33:17;188.88;;;75.97;;
12114;SDS011;6121;49.810;6.418;2023-01-19T07:35:47;188.82;;;64.28;;
12114;SDS011;6121;49.810;6.418;2023-01-19T07:38:16;139.07;;;50.28;;
12114;SDS011;6121;49.810;6.418;2023-01-19T07:40:44;154.98;;;57.17;;
12114;SDS011;6121;49.810;6.418;2023-01-19T07:43:13;182.98;;;56.92;;
12114;SDS011;6121;49.810;6.418;2023-01-19T07:45:39;186.60;;;46.22;;
12114;SDS011;6121;49.810;6.418;2023-01-19T07:48:05;115.43;;;36.17;;
12114;SDS011;6121;49.810;6.418;2023-01-19T07:50:31;137.90;;;40.00;;
12114;SDS011;6121;49.810;6.418;2023-01-19T07:53:07;175.67;;;49.43;;
12114;SDS011;6121;49.810;6.418;2023-01-19T07:55:34;177.93;;;53.47;;
12114;SDS011;6121;49.810;6.418;2023-01-19T07:58:00;101.18;;;43.38;;
12114;SDS011;6121;49.810;6.418;2023-01-19T08:00:29;171.50;;;48.25;;
12114;SDS011;6121;49.810;6.418;2023-01-19T08:02:57;164.10;;;41.37;;
12114;SDS011;6121;49.810;6.418;2023-01-19T08:05:25;170.70;;;43.83;;
12114;SDS011;6121;49.810;6.418;2023-01-19T08:07:54;143.37;;;34.97;;
12114;SDS011;6121;49.810;6.418;2023-01-19T08:10:22;134.13;;;37.83;;
12114;SDS011;6121;49.810;6.418;2023-01-19T08:12:53;193.98;;;43.25;;
12114;SDS011;6121;49.810;6.418;2023-01-19T08:15:21;164.48;;;37.78;;
12114;SDS011;6121;49.810;6.418;2023-01-19T08:17:58;136.10;;;33.38;;
12114;SDS011;6121;49.810;6.418;2023-01-19T08:20:26;127.05;;;31.25;;
12114;SDS011;6121;49.810;6.418;2023-01-19T08:22:53;154.98;;;36.78;;
12114;SDS011;6121;49.810;6.418;2023-01-19T08:25:34;165.63;;;34.75;;
12114;SDS011;6121;49.810;6.418;2023-01-19T08:28:02;154.40;;;37.10;;
12114;SDS011;6121;49.810;6.418;2023-01-19T08:30:29;160.00;;;41.28;;
12114;SDS011;6121;49.810;6.418;2023-01-19T08:32:55;165.00;;;47.80;;
12114;SDS011;6121;49.810;6.418;2023-01-19T08:35:38;141.25;;;34.53;;
12114;SDS011;6121;49.810;6.418;2023-01-19T08:38:06;134.65;;;30.00;;
12114;SDS011;6121;49.810;6.418;2023-01-19T08:40:34;142.18;;;27.77;;
12114;SDS011;6121;49.810;6.418;2023-01-19T08:43:03;144.82;;;29.20;;
12114;SDS011;6121;49.810;6.418;2023-01-19T08:45:32;154.38;;;29.08;;
12114;SDS011;6121;49.810;6.418;2023-01-19T08:47:59;112.47;;;23.70;;
12114;SDS011;6121;49.810;6.418;2023-01-19T08:50:26;136.98;;;25.48;;
12114;SDS011;6121;49.810;6.418;2023-01-19T08:52:57;141.30;;;24.63;;
12114;SDS011;6121;49.810;6.418;2023-01-19T08:55:24;140.43;;;24.10;;
12114;SDS011;6121;49.810;6.418;2023-01-19T08:57:54;139.98;;;23.95;;
12114;SDS011;6121;49.810;6.418;2023-01-19T09:00:22;134.02;;;23.13;;
12114;SDS011;6121;49.810;6.418;2023-01-19T09:02:49;172.32;;;28.63;;
12114;SDS011;6121;49.810;6.418;2023-01-19T09:05:15;128.18;;;22.73;;
12114;SDS011;6121;49.810;6.418;2023-01-19T09:07:45;133.75;;;22.55;;
12114;SDS011;6121;49.810;6.418;2023-01-19T09:10:14;113.30;;;20.08;;
12114;SDS011;6121;49.810;6.418;2023-01-19T09:12:41;146.50;;;24.43;;
12114;SDS011;6121;49.810;6.418;2023-01-19T09:15:09;120.18;;;20.70;;
12114;SDS011;6121;49.810;6.418;2023-01-19T09:17:36;149.13;;;24.42;;
12114;SDS011;6121;49.810;6.418;2023-01-19T09:20:02;98.40;;;18.05;;
12114;SDS011;6121;49.810;6.418;2023-01-19T09:22:31;235.18;;;35.22;;
12114;SDS011;6121;49.810;6.418;2023-01-19T09:24:57;129.90;;;22.35;;
12114;SDS011;6121;49.810;6.418;2023-01-19T09:27:24;128.18;;;21.42;;
12114;SDS011;6121;49.810;6.418;2023-01-19T09:29:49;150.90;;;24.02;;
12114;SDS011;6121;49.810;6.418;2023-01-19T09:32:20;147.25;;;23.48;;
12114;SDS011;6121;49.810;6.418;2023-01-19T09:34:47;175.15;;;27.67;;
12114;SDS011;6121;49.810;6.418;2023-01-19T09:37:13;123.63;;;21.50;;
12114;SDS011;6121;49.810;6.418;2023-01-19T09:39:42;135.03;;;23.83;;
12114;SDS011;6121;49.810;6.418;2023-01-19T09:42:13;237.98;;;37.60;;
12114;SDS011;6121;49.810;6.418;2023-01-19T09:44:50;144.20;;;25.85;;
12114;SDS011;6121;49.810;6.418;2023-01-19T09:47:19;153.95;;;26.85;;
12114;SDS011;6121;49.810;6.418;2023-01-19T09:52:38;190.35;;;32.13;;
12114;SDS011;6121;49.810;6.418;2023-01-19T09:55:21;134.50;;;25.00;;
12114;SDS011;6121;49.810;6.418;2023-01-19T09:57:49;155.90;;;28.38;;
12114;SDS011;6121;49.810;6.418;2023-01-19T10:00:16;128.48;;;26.73;;
12114;SDS011;6121;49.810;6.418;2023-01-19T10:02:59;160.05;;;33.28;;
12114;SDS011;6121;49.810;6.418;2023-01-19T10:05:40;138.30;;;29.52;;
12114;SDS011;6121;49.810;6.418;2023-01-19T10:10:54;165.75;;;38.75;;
12114;SDS011;6121;49.810;6.418;2023-01-19T10:16:06;131.75;;;36.25;;
12114;SDS011;6121;49.810;6.418;2023-01-19T10:18:43;159.77;;;47.83;;
12114;SDS011;6121;49.810;6.418;2023-01-19T10:26:44;132.15;;;37.35;;
12114;SDS011;6121;49.810;6.418;2023-01-19T10:29:35;138.60;;;33.57;;
12114;SDS011;6121;49.810;6.418;2023-01-19T10:34:51;174.13;;;60.17;;
12114;SDS011;6121;49.810;6.418;2023-01-19T10:39:53;202.50;;;125.28;;
12114;SDS011;6121;49.810;6.418;2023-01-19T10:42:36;190.13;;;74.90;;
12114;SDS011;6121;49.810;6.418;2023-01-19T10:45:20;121.50;;;53.58;;
12114;SDS011;6121;49.810;6.418;2023-01-19T10:47:57;164.57;;;46.85;;
12114;SDS011;6121;49.810;6.418;2023-01-19T10:50:26;132.25;;;41.70;;
12114;SDS011;6121;49.810;6.418;2023-01-19T10:52:55;184.68;;;43.15;;
12114;SDS011;6121;49.810;6.418;2023-01-19T10:55:24;120.55;;;29.17;;
12114;SDS011;6121;49.810;6.418;2023-01-19T10:57:50;144.73;;;27.25;;
12114;SDS011;6121;49.810;6.418;2023-01-19T11:00:29;110.05;;;23.30;;
12114;SDS011;6121;49.810;6.418;2023-01-19T11:02:58;152.88;;;28.33;;
12114;SDS011;6121;49.810;6.418;2023-01-19T11:05:25;124.80;;;24.38;;
12114;SDS011;6121;49.810;6.418;2023-01-19T11:07:55;136.13;;;25.00;;
12114;SDS011;6121;49.810;6.418;2023-01-19T11:10:23;123.32;;;23.38;;
12114;SDS011;6121;49.810;6.418;2023-01-19T11:13:02;182.23;;;30.30;;
12114;SDS011;6121;49.810;6.418;2023-01-19T11:15:41;146.60;;;25.87;;
12114;SDS011;6121;49.810;6.418;2023-01-19T11:21:11;153.10;;;25.03;;
12114;SDS011;6121;49.810;6.418;2023-01-19T11:23:40;172.95;;;29.73;;
12114;SDS011;6121;49.810;6.418;2023-01-19T11:27:00;132.13;;;24.90;;
12114;SDS011;6121;49.810;6.418;2023-01-19T11:29:15;128.30;;;23.80;;
12114;SDS011;6121;49.810;6.418;2023-01-19T11:31:47;204.75;;;35.80;;
12114;SDS011;6121;49.810;6.418;2023-01-19T11:34:30;155.80;;;28.10;;
12114;SDS011;6121;49.810;6.418;2023-01-19T11:37:02;137.75;;;25.17;;
12114;SDS011;6121;49.810;6.418;2023-01-19T11:42:16;194.32;;;30.63;;
12114;SDS011;6121;49.810;6.418;2023-01-19T11:44:46;153.15;;;25.90;;
12114;SDS011;6121;49.810;6.418;2023-01-19T11:47:16;129.70;;;22.92;;
12114;SDS011;6121;49.810;6.418;2023-01-19T11:52:36;214.73;;;33.50;;
12114;SDS011;6121;49.810;6.418;2023-01-19T11:55:35;124.18;;;21.58;;
12114;SDS011;6121;49.810;6.418;2023-01-19T11:58:20;126.25;;;21.92;;
12114;SDS011;6121;49.810;6.418;2023-01-19T12:01:01;140.23;;;24.05;;
12114;SDS011;6121;49.810;6.418;2023-01-19T12:06:48;138.10;;;24.13;;
12114;SDS011;6121;49.810;6.418;2023-01-19T12:09:27;121.88;;;22.63;;
12114;SDS011;6121;49.810;6.418;2023-01-19T12:12:12;145.90;;;26.48;;
12114;SDS011;6121;49.810;6.418;2023-01-19T12:17:47;168.57;;;29.00;;
12114;SDS011;6121;49.810;6.418;2023-01-19T12:20:35;95.32;;;20.48;;
12114;SDS011;6121;49.810;6.418;2023-01-19T12:23:27;122.05;;;25.08;;
12114;SDS011;6121;49.810;6.418;2023-01-19T12:26:07;152.65;;;29.27;;
12114;SDS011;6121;49.810;6.418;2023-01-19T12:28:46;167.93;;;29.52;;
12114;SDS011;6121;49.810;6.418;2023-01-19T12:31:15;144.30;;;27.70;;
12114;SDS011;6121;49.810;6.418;2023-01-19T12:33:43;161.32;;;32.20;;
12114;SDS011;6121;49.810;6.418;2023-01-19T12:39:21;160.05;;;35.88;;
12114;SDS011;6121;49.810;6.418;2023-01-19T12:41:47;201.20;;;38.40;;
12114;SDS011;6121;49.810;6.418;2023-01-19T12:44:29;150.60;;;34.50;;
12114;SDS011;6121;49.810;6.418;2023-01-19T12:46:58;190.30;;;44.28;;
12114;SDS011;6121;49.810;6.418;2023-01-19T12:49:41;172.00;;;42.45;;
12114;SDS011;6121;49.810;6.418;2023-01-19T12:52:10;215.02;;;43.28;;
12114;SDS011;6121;49.810;6.418;2023-01-19T13:02:56;192.82;;;74.97;;
12114;SDS011;6121;49.810;6.418;2023-01-19T13:05:46;165.27;;;71.13;;
12114;SDS011;6121;49.810;6.418;2023-01-19T13:08:18;147.80;;;76.63;;
12114;SDS011;6121;49.810;6.418;2023-01-19T13:13:37;178.90;;;116.40;;
12114;SDS011;6121;49.810;6.418;2023-01-19T13:18:45;191.18;;;144.95;;
12114;SDS011;6121;49.810;6.418;2023-01-19T13:21:28;192.98;;;141.88;;
12114;SDS011;6121;49.810;6.418;2023-01-19T13:24:00;189.90;;;102.10;;
12114;SDS011;6121;49.810;6.418;2023-01-19T13:26:33;132.63;;;37.03;;
12114;SDS011;6121;49.810;6.418;2023-01-19T13:29:05;132.85;;;22.35;;
12114;SDS011;6121;49.810;6.418;2023-01-19T13:31:35;140.37;;;22.40;;
12114;SDS011;6121;49.810;6.418;2023-01-19T13:34:04;151.48;;;24.45;;
12114;SDS011;6121;49.810;6.418;2023-01-19T13:36:43;136.02;;;22.55;;
12114;SDS011;6121;49.810;6.418;2023-01-19T13:39:28;156.43;;;24.70;;
12114;SDS011;6121;49.810;6.418;2023-01-19T13:41:58;186.45;;;28.65;;
12114;SDS011;6121;49.810;6.418;2023-01-19T13:44:47;149.98;;;24.27;;
12114;SDS011;6121;49.810;6.418;2023-01-19T13:47:22;112.15;;;19.33;;
12114;SDS011;6121;49.810;6.418;2023-01-19T13:49:57;136.73;;;22.87;;
12114;SDS011;6121;49.810;6.418;2023-01-19T13:52:26;162.90;;;26.60;;
12114;SDS011;6121;49.810;6.418;2023-01-19T13:54:54;183.70;;;30.63;;
12114;SDS011;6121;49.810;6.418;2023-01-19T13:57:25;120.97;;;22.85;;
12114;SDS011;6121;49.810;6.418;2023-01-19T14:02:39;202.13;;;34.75;;
12114;SDS011;6121;49.810;6.418;2023-01-19T14:05:33;129.87;;;26.13;;
12114;SDS011;6121;49.810;6.418;2023-01-19T14:10:25;131.38;;;31.33;;
12114;SDS011;6121;49.810;6.418;2023-01-19T14:13:02;207.75;;;45.15;;
12114;SDS011;6121;49.810;6.418;2023-01-19T14:15:38;178.73;;;53.47;;
12114;SDS011;6121;49.810;6.418;2023-01-19T14:20:35;148.13;;;54.25;;
12114;SDS011;6121;49.810;6.418;2023-01-19T14:23:02;219.18;;;107.22;;
12114;SDS011;6121;49.810;6.418;2023-01-19T14:25:30;227.93;;;164.27;;
12114;SDS011;6121;49.810;6.418;2023-01-19T14:28:40;193.15;;;153.27;;
12114;SDS011;6121;49.810;6.418;2023-01-19T14:30:53;198.90;;;61.38;;
12114;SDS011;6121;49.810;6.418;2023-01-19T14:33:43;247.63;;;223.05;;
12114;SDS011;6121;49.810;6.418;2023-01-19T14:38:57;139.20;;;22.90;;
12114;SDS011;6121;49.810;6.418;2023-01-19T14:43:55;191.07;;;28.40;;
12114;SDS011;6121;49.810;6.418;2023-01-19T14:46:21;147.80;;;23.02;;
12114;SDS011;6121;49.810;6.418;2023-01-19T14:48:49;169.50;;;25.63;;
12114;SDS011;6121;49.810;6.418;2023-01-19T14:51:22;126.80;;;20.23;;
12114;SDS011;6121;49.810;6.418;2023-01-19T14:53:52;162.38;;;24.85;;
12114;SDS011;6121;49.810;6.418;2023-01-19T14:56:28;136.52;;;21.70;;
12114;SDS011;6121;49.810;6.418;2023-01-19T14:58:57;128.45;;;21.05;;
12114;SDS011;6121;49.810;6.418;2023-01-19T15:01:26;161.75;;;25.00;;
12114;SDS011;6121;49.810;6.418;2023-01-19T15:03:53;160.48;;;24.67;;
12114;SDS011;6121;49.810;6.418;2023-01-19T15:06:23;139.73;;;22.33;;
12114;SDS011;6121;49.810;6.418;2023-01-19T15:08:50;120.43;;;18.90;;
12114;SDS011;6121;49.810;6.418;2023-01-19T15:13:51;151.07;;;22.27;;
12114;SDS011;6121;49.810;6.418;2023-01-19T15:16:18;137.77;;;20.97;;
12114;SDS011;6121;49.810;6.418;2023-01-19T15:18:44;143.57;;;21.25;;
12114;SDS011;6121;49.810;6.418;2023-01-19T15:21:11;149.35;;;22.02;;
12114;SDS011;6121;49.810;6.418;2023-01-19T15:23:39;142.52;;;21.23;;
12114;SDS011;6121;49.810;6.418;2023-01-19T15:26:06;151.23;;;22.38;;
12114;SDS011;6121;49.810;6.418;2023-01-19T15:28:31;125.15;;;18.95;;
12114;SDS011;6121;49.810;6.418;2023-01-19T15:30:58;150.98;;;22.40;;
12114;SDS011;6121;49.810;6.418;2023-01-19T15:33:25;149.20;;;21.85;;
12114;SDS011;6121;49.810;6.418;2023-01-19T15:35:54;143.80;;;21.00;;
12114;SDS011;6121;49.810;6.418;2023-01-19T15:38:21;100.25;;;15.95;;
12114;SDS011;6121;49.810;6.418;2023-01-19T15:40:50;141.20;;;20.70;;
12114;SDS011;6121;49.810;6.418;2023-01-19T15:43:16;169.15;;;24.15;;
12114;SDS011;6121;49.810;6.418;2023-01-19T15:46:01;151.77;;;22.07;;
12114;SDS011;6121;49.810;6.418;2023-01-19T15:48:27;131.82;;;19.48;;
12114;SDS011;6121;49.810;6.418;2023-01-19T15:50:53;139.10;;;20.50;;
12114;SDS011;6121;49.810;6.418;2023-01-19T15:53:19;140.38;;;20.52;;
12114;SDS011;6121;49.810;6.418;2023-01-19T15:55:49;141.55;;;20.45;;
12114;SDS011;6121;49.810;6.418;2023-01-19T15:58:16;119.00;;;17.05;;
12114;SDS011;6121;49.810;6.418;2023-01-19T16:00:44;118.80;;;17.25;;
12114;SDS011;6121;49.810;6.418;2023-01-19T16:03:16;136.55;;;19.50;;